createdAt,value
2022-11-08T00:02:21.094Z,4.42
2022-11-08T00:04:47.695Z,4.59
2022-11-08T00:07:33.027Z,4.50
2022-11-08T00:10:17.879Z,4.36
2022-11-08T00:13:03.202Z,4.42
2022-11-08T00:15:34.661Z,4.43
2022-11-08T00:18:01.208Z,4.37
2022-11-08T00:20:27.712Z,4.41
2022-11-08T00:22:54.272Z,4.23
2022-11-08T00:25:20.804Z,4.31
2022-11-08T00:27:47.317Z,4.30
2022-11-08T00:30:14.024Z,4.29
2022-11-08T00:32:40.618Z,4.19
2022-11-08T00:35:07.702Z,4.32
2022-11-08T00:37:36.433Z,4.28
2022-11-08T00:40:03.039Z,4.07
2022-11-08T00:42:29.620Z,4.15
2022-11-08T00:44:56.122Z,4.19
2022-11-08T00:47:22.593Z,4.08
2022-11-08T00:49:49.097Z,4.04
2022-11-08T00:52:15.624Z,4.01
2022-11-08T00:54:42.143Z,4.01
2022-11-08T00:57:08.682Z,4.14
2022-11-08T00:59:35.273Z,3.89
2022-11-08T01:02:04.019Z,4.01
2022-11-08T01:04:30.587Z,3.85
2022-11-08T01:06:57.161Z,3.88
2022-11-08T01:09:25.976Z,3.75
2022-11-08T01:11:52.498Z,3.82
2022-11-08T01:14:19.021Z,3.96
2022-11-08T01:16:45.606Z,4.00
2022-11-08T01:19:12.212Z,4.08
2022-11-08T01:21:38.811Z,4.12
2022-11-08T01:24:05.967Z,3.74
2022-11-08T01:26:32.530Z,3.96
2022-11-08T01:28:59.653Z,3.89
2022-11-08T01:31:29.114Z,3.86
2022-11-08T01:33:56.704Z,3.74
2022-11-08T01:36:26.008Z,3.67
2022-11-08T01:38:53.247Z,3.72
2022-11-08T01:41:22.477Z,3.52
2022-11-08T01:43:51.180Z,3.63
2022-11-08T01:46:34.226Z,3.69
2022-11-08T01:49:07.932Z,3.73
2022-11-08T01:51:40.421Z,3.72
2022-11-08T01:54:12.526Z,3.63
2022-11-08T01:56:41.018Z,3.73
2022-11-08T01:59:10.185Z,3.66
2022-11-08T02:01:37.029Z,3.77
2022-11-08T02:04:05.821Z,3.64
2022-11-08T02:06:37.666Z,3.67
2022-11-08T02:09:07.309Z,3.74
2022-11-08T02:11:34.480Z,3.64
2022-11-08T02:14:01.598Z,3.69
2022-11-08T02:16:28.143Z,3.65
2022-11-08T02:18:54.696Z,3.70
2022-11-08T02:21:28.358Z,3.72
2022-11-08T02:23:56.186Z,3.70
2022-11-08T02:26:28.200Z,3.53
2022-11-08T02:28:55.087Z,3.54
2022-11-08T02:31:21.869Z,3.56
2022-11-08T02:33:49.419Z,3.57
2022-11-08T02:36:20.264Z,3.61
2022-11-08T02:38:51.633Z,3.42
2022-11-08T02:41:18.209Z,3.28
2022-11-08T02:43:44.714Z,3.43
2022-11-08T02:46:11.277Z,3.48
2022-11-08T02:48:37.815Z,3.50
2022-11-08T02:51:04.382Z,3.38
2022-11-08T02:53:31.027Z,3.39
2022-11-08T02:55:57.537Z,3.25
2022-11-08T02:58:24.778Z,3.25
2022-11-08T03:00:53.545Z,3.19
2022-11-08T03:03:20.154Z,3.29
2022-11-08T03:05:47.611Z,2.98
2022-11-08T03:08:14.920Z,3.13
2022-11-08T03:10:41.737Z,2.96
2022-11-08T03:13:08.813Z,2.95
2022-11-08T03:15:35.422Z,3.01
2022-11-08T03:18:04.553Z,3.12
2022-11-08T03:20:33.162Z,3.08
2022-11-08T03:23:04.458Z,3.11
2022-11-08T03:25:31.106Z,3.09
2022-11-08T03:28:05.563Z,3.00
2022-11-08T03:30:32.640Z,3.17
2022-11-08T03:32:59.463Z,3.02
2022-11-08T03:35:26.038Z,3.08
2022-11-08T03:37:57.297Z,2.96
2022-11-08T03:40:24.875Z,2.78
2022-11-08T03:42:51.507Z,2.83
2022-11-08T03:45:18.330Z,2.90
2022-11-08T03:47:46.561Z,2.78
2022-11-08T03:50:14.800Z,2.66
2022-11-08T03:52:50.759Z,2.74
2022-11-08T03:55:19.021Z,2.90
2022-11-08T03:57:48.016Z,2.75
2022-11-08T04:00:17.318Z,2.77
2022-11-08T04:02:44.139Z,2.71
2022-11-08T04:05:12.931Z,2.56
2022-11-08T04:07:41.760Z,2.69
2022-11-08T04:10:09.521Z,2.63
2022-11-08T04:13:00.812Z,2.45
2022-11-08T04:15:29.324Z,2.51
2022-11-08T04:18:15.082Z,2.38
2022-11-08T04:21:02.902Z,2.34
2022-11-08T04:23:31.083Z,2.56
2022-11-08T04:26:00.229Z,2.56
2022-11-08T04:28:31.468Z,2.61
2022-11-08T04:31:00.270Z,2.61
2022-11-08T04:33:27.338Z,2.61
2022-11-08T04:35:54.379Z,2.50
2022-11-08T04:38:21.793Z,2.32
2022-11-08T04:40:48.471Z,2.42
2022-11-08T04:43:15.099Z,2.36
2022-11-08T04:45:41.666Z,2.22
2022-11-08T04:48:08.735Z,2.32
2022-11-08T04:50:36.181Z,2.36
2022-11-08T04:53:02.706Z,2.34
2022-11-08T04:55:29.215Z,2.26
2022-11-08T04:57:58.991Z,2.36
2022-11-08T05:00:26.366Z,2.34
2022-11-08T05:02:53.087Z,2.24
2022-11-08T05:05:19.710Z,2.40
2022-11-08T05:07:46.469Z,2.34
2022-11-08T05:10:13.057Z,2.37
2022-11-08T05:12:39.640Z,2.33
2022-11-08T05:15:09.875Z,2.43
2022-11-08T05:17:41.253Z,2.20
2022-11-08T05:20:29.288Z,2.33
2022-11-08T05:23:19.708Z,2.21
2022-11-08T05:25:48.671Z,2.18
2022-11-08T05:28:15.615Z,2.20
2022-11-08T05:30:45.571Z,2.29
2022-11-08T05:33:16.904Z,2.31
2022-11-08T05:35:43.439Z,2.23
2022-11-08T05:38:12.186Z,2.12
2022-11-08T05:40:38.727Z,2.05
2022-11-08T05:43:05.216Z,2.22
2022-11-08T05:45:31.729Z,2.25
2022-11-08T05:48:03.621Z,2.15
2022-11-08T05:50:34.807Z,2.27
2022-11-08T05:53:01.697Z,2.32
2022-11-08T05:55:28.340Z,2.33
2022-11-08T05:57:54.943Z,2.23
2022-11-08T06:00:24.184Z,2.20
2022-11-08T06:02:50.706Z,2.16
2022-11-08T06:05:17.360Z,2.07
2022-11-08T06:07:43.931Z,2.10
2022-11-08T06:10:13.318Z,2.08
2022-11-08T06:12:39.888Z,2.12
2022-11-08T06:15:07.973Z,2.10
2022-11-08T06:17:34.904Z,2.19
2022-11-08T06:20:01.736Z,2.22
2022-11-08T06:22:31.555Z,2.17
2022-11-08T06:25:00.291Z,2.13
2022-11-08T06:27:29.644Z,2.13
2022-11-08T06:29:56.660Z,2.13
2022-11-08T06:32:25.660Z,2.15
2022-11-08T06:34:52.234Z,2.25
2022-11-08T06:37:21.022Z,2.26
2022-11-08T06:39:52.271Z,2.19
2022-11-08T06:42:18.835Z,2.44
2022-11-08T06:44:45.378Z,2.47
2022-11-08T06:47:14.760Z,2.71
2022-11-08T06:49:41.321Z,2.58
2022-11-08T06:52:08.303Z,2.70
2022-11-08T06:54:42.322Z,2.73
2022-11-08T06:57:08.869Z,2.71
2022-11-08T06:59:35.539Z,2.73
2022-11-08T07:02:02.268Z,3.03
2022-11-08T07:04:28.861Z,3.49
2022-11-08T07:06:55.727Z,3.91
2022-11-08T07:09:22.274Z,3.91
2022-11-08T07:11:48.855Z,3.74
2022-11-08T07:14:15.446Z,3.64
2022-11-08T07:16:44.280Z,3.73
2022-11-08T07:19:13.230Z,3.71
2022-11-08T07:21:39.823Z,3.94
2022-11-08T07:24:06.697Z,4.25
2022-11-08T07:26:33.258Z,4.05
2022-11-08T07:29:02.477Z,4.03
2022-11-08T07:31:32.016Z,4.17
2022-11-08T07:33:58.556Z,4.36
2022-11-08T07:36:25.086Z,4.30
2022-11-08T07:38:52.191Z,4.22
2022-11-08T07:41:18.756Z,4.34
2022-11-08T07:43:49.115Z,4.42
2022-11-08T07:46:15.921Z,4.30
2022-11-08T07:48:42.412Z,4.27
2022-11-08T07:51:09.038Z,4.20
2022-11-08T07:53:35.557Z,4.39
2022-11-08T07:56:02.213Z,4.59
2022-11-08T07:58:30.961Z,4.76
2022-11-08T08:01:02.415Z,4.79
2022-11-08T08:03:29.541Z,4.90
2022-11-08T08:06:00.727Z,5.05
2022-11-08T08:08:31.093Z,5.31
2022-11-08T08:11:00.223Z,5.48
2022-11-08T08:13:27.051Z,5.40
2022-11-08T08:15:53.642Z,5.44
2022-11-08T08:18:21.729Z,5.80
2022-11-08T08:20:48.294Z,5.97
2022-11-08T08:23:17.535Z,5.99
2022-11-08T08:25:44.412Z,6.40
2022-11-08T08:28:11.173Z,6.33
2022-11-08T08:30:38.226Z,6.24
2022-11-08T08:33:27.534Z,6.11
2022-11-08T08:35:55.287Z,6.16
2022-11-08T08:38:21.945Z,6.09
2022-11-08T08:40:48.575Z,5.96
2022-11-08T08:43:15.508Z,6.02
2022-11-08T08:45:42.244Z,6.22
2022-11-08T08:48:08.800Z,6.45
2022-11-08T08:50:35.376Z,6.47
2022-11-08T08:53:05.757Z,6.56
2022-11-08T08:55:35.352Z,6.90
2022-11-08T08:58:01.941Z,6.83
2022-11-08T09:03:15.308Z,7.13
2022-11-08T09:05:44.119Z,7.25
2022-11-08T09:08:11.838Z,7.08
2022-11-08T09:10:38.841Z,7.32
2022-11-08T09:13:05.633Z,7.25
2022-11-08T09:15:32.332Z,7.39
2022-11-08T09:17:58.927Z,7.57
2022-11-08T09:20:25.929Z,7.81
2022-11-08T09:22:52.447Z,7.88
2022-11-08T09:25:21.348Z,8.06
2022-11-08T09:27:50.617Z,8.23
2022-11-08T09:30:17.197Z,8.25
2022-11-08T09:33:00.341Z,8.48
2022-11-08T09:35:30.632Z,8.51
2022-11-08T09:37:58.085Z,8.63
2022-11-08T09:40:38.888Z,8.61
2022-11-08T09:43:33.405Z,8.85
2022-11-08T09:46:00.026Z,9.00
2022-11-08T09:48:38.875Z,9.12
2022-11-08T09:51:37.006Z,9.28
2022-11-08T09:54:17.114Z,9.39
2022-11-08T09:56:47.297Z,9.53
2022-11-08T09:59:35.086Z,9.59
2022-11-08T10:02:01.915Z,9.85
2022-11-08T10:04:32.073Z,9.82
2022-11-08T10:07:03.408Z,9.84
2022-11-08T10:09:38.950Z,9.92
2022-11-08T10:12:25.240Z,10.00
2022-11-08T10:15:19.797Z,10.13
2022-11-08T10:18:12.664Z,10.24
2022-11-08T10:20:50.894Z,10.37
2022-11-08T10:23:32.754Z,10.53
2022-11-08T10:26:05.913Z,10.47
2022-11-08T10:28:37.447Z,10.52
2022-11-08T10:31:04.594Z,10.62
2022-11-08T10:33:37.401Z,10.76
2022-11-08T10:36:11.518Z,10.86
2022-11-08T10:38:47.563Z,10.96
2022-11-08T10:41:31.049Z,10.95
2022-11-08T10:44:24.738Z,10.89
2022-11-08T10:46:59.403Z,10.85
2022-11-08T10:49:37.620Z,10.78
2022-11-08T10:52:33.240Z,10.79
2022-11-08T10:55:00.203Z,10.83
2022-11-08T10:57:29.641Z,10.87
2022-11-08T10:59:57.669Z,10.96
2022-11-08T11:02:34.546Z,11.14
2022-11-08T11:05:16.511Z,11.50
2022-11-08T11:08:02.141Z,11.69
2022-11-08T11:10:34.805Z,12.00
2022-11-08T11:13:10.246Z,12.22
2022-11-08T11:15:47.484Z,12.37
2022-11-08T11:18:23.878Z,12.64
2022-11-08T11:21:09.401Z,12.72
2022-11-08T11:23:37.814Z,12.76
2022-11-08T11:26:07.085Z,12.97
2022-11-08T11:28:36.052Z,13.32
2022-11-08T11:31:15.266Z,13.44
2022-11-08T11:33:47.460Z,13.71
2022-11-08T11:36:18.850Z,13.74
2022-11-08T11:38:48.463Z,13.88
2022-11-08T11:41:24.948Z,14.06
2022-11-08T11:44:23.362Z,14.07
2022-11-08T11:46:53.641Z,14.08
2022-11-08T11:49:21.475Z,14.17
2022-11-08T11:51:48.196Z,14.24
2022-11-08T11:54:16.569Z,14.28
2022-11-08T11:57:17.506Z,14.31
2022-11-08T11:59:53.748Z,14.34
2022-11-08T12:02:34.618Z,14.48
2022-11-08T12:05:19.418Z,14.48
2022-11-08T12:07:54.509Z,14.59
2022-11-08T12:10:34.965Z,14.59
2022-11-08T12:13:20.539Z,14.52
2022-11-08T12:15:51.179Z,14.58
2022-11-08T12:18:46.092Z,14.56
2022-11-08T12:21:25.447Z,14.66
2022-11-08T12:24:08.260Z,14.63
2022-11-08T12:27:11.900Z,14.61
2022-11-08T12:29:38.417Z,14.60
2022-11-08T12:32:24.091Z,14.54
2022-11-08T12:35:09.192Z,14.61
2022-11-08T12:37:41.829Z,14.69
2022-11-08T12:40:26.569Z,14.73
2022-11-08T12:43:13.167Z,14.76
2022-11-08T12:46:04.710Z,14.82
2022-11-08T12:48:31.308Z,14.81
2022-11-08T12:51:22.194Z,14.73
2022-11-08T12:53:57.532Z,14.70
2022-11-08T12:56:39.317Z,14.71
2022-11-08T12:59:20.805Z,14.69
2022-11-08T13:01:47.995Z,14.62
2022-11-08T13:04:25.660Z,14.63
2022-11-08T13:07:10.943Z,14.69
2022-11-08T13:09:42.093Z,14.66
2022-11-08T13:12:33.407Z,14.57
2022-11-08T13:15:04.139Z,14.52
2022-11-08T13:17:33.563Z,14.45
2022-11-08T13:20:05.960Z,14.43
2022-11-08T13:22:32.616Z,14.33
2022-11-08T13:25:01.493Z,14.33
2022-11-08T13:27:37.744Z,14.31
2022-11-08T13:30:24.900Z,14.31
2022-11-08T13:33:16.556Z,14.30
2022-11-08T13:35:56.273Z,14.24
2022-11-08T13:39:00.045Z,14.29
2022-11-08T13:41:26.959Z,14.19
2022-11-08T13:43:56.090Z,14.20
2022-11-08T13:46:29.689Z,14.21
2022-11-08T13:49:03.549Z,14.11
2022-11-08T13:51:30.135Z,14.11
2022-11-08T13:54:02.698Z,14.06
2022-11-08T13:56:57.505Z,14.05
2022-11-08T13:59:32.774Z,14.04
2022-11-08T14:02:03.862Z,14.04
2022-11-08T14:04:37.265Z,14.02
2022-11-08T14:07:25.217Z,14.01
2022-11-08T14:10:27.503Z,13.97
2022-11-08T14:13:15.732Z,13.89
2022-11-08T14:16:01.963Z,13.90
2022-11-08T14:18:33.046Z,13.85
2022-11-08T14:21:00.376Z,13.87
2022-11-08T14:23:29.053Z,13.82
2022-11-08T14:26:00.763Z,13.83
2022-11-08T14:28:29.518Z,13.80
2022-11-08T14:30:57.598Z,13.70
2022-11-08T14:33:27.544Z,13.67
2022-11-08T14:35:58.273Z,13.77
2022-11-08T14:38:27.023Z,13.66
2022-11-08T14:40:58.009Z,13.65
2022-11-08T14:43:27.499Z,13.57
2022-11-08T14:45:54.981Z,13.45
2022-11-08T14:48:24.526Z,13.41
2022-11-08T14:51:01.973Z,13.27
2022-11-08T14:53:31.940Z,13.07
2022-11-08T14:56:18.368Z,13.00
2022-11-08T14:58:46.049Z,12.99
2022-11-08T15:01:16.552Z,12.87
2022-11-08T15:03:52.447Z,12.73
2022-11-08T15:06:21.500Z,12.70
2022-11-08T15:08:56.915Z,12.68
2022-11-08T15:11:40.082Z,12.70
2022-11-08T15:14:09.337Z,12.50
2022-11-08T15:16:49.735Z,12.49
2022-11-08T15:19:30.003Z,12.33
2022-11-08T15:22:00.393Z,12.21
2022-11-08T15:24:38.470Z,12.18
2022-11-08T15:27:24.353Z,11.94
2022-11-08T15:29:59.437Z,11.85
2022-11-08T15:32:26.972Z,11.67
2022-11-08T15:34:55.895Z,11.55
2022-11-08T15:37:38.356Z,11.45
2022-11-08T15:40:27.225Z,11.28
2022-11-08T15:42:54.399Z,11.33
2022-11-08T15:45:25.994Z,11.25
2022-11-08T15:47:59.456Z,10.96
2022-11-08T15:50:30.012Z,10.76
2022-11-08T15:52:59.184Z,10.97
2022-11-08T15:55:30.078Z,10.92
2022-11-08T15:58:00.836Z,10.96
2022-11-08T16:00:32.688Z,10.85
2022-11-08T16:03:02.182Z,10.60
2022-11-08T16:05:36.443Z,10.43
2022-11-08T16:08:02.994Z,10.33
2022-11-08T16:10:38.028Z,10.20
2022-11-08T16:13:05.895Z,10.34
2022-11-08T16:15:34.994Z,10.17
2022-11-08T16:18:02.715Z,9.91
2022-11-08T16:20:35.800Z,9.77
2022-11-08T16:23:05.662Z,9.94
2022-11-08T16:25:45.333Z,9.80
2022-11-08T16:28:22.066Z,9.67
2022-11-08T16:30:51.347Z,9.56
2022-11-08T16:33:20.786Z,9.38
2022-11-08T16:35:47.777Z,9.37
2022-11-08T16:38:14.635Z,9.32
2022-11-08T16:40:41.408Z,9.41
2022-11-08T16:43:11.898Z,9.21
2022-11-08T16:46:03.771Z,8.97
2022-11-08T16:48:27.215Z,8.89
2022-11-08T16:51:04.666Z,8.67
2022-11-08T16:53:32.313Z,8.58
2022-11-08T16:56:01.496Z,8.67
2022-11-08T16:58:28.185Z,8.72
2022-11-08T17:00:56.391Z,8.86
2022-11-08T17:03:25.842Z,8.71
2022-11-08T17:05:54.066Z,8.60
2022-11-08T17:08:21.476Z,8.67
2022-11-08T17:10:48.255Z,8.46
2022-11-08T17:13:19.998Z,8.18
2022-11-08T17:15:47.758Z,8.16
2022-11-08T17:18:17.814Z,8.05
2022-11-08T17:20:47.109Z,7.75
2022-11-08T17:23:14.261Z,7.76
2022-11-08T17:25:42.997Z,7.95
2022-11-08T17:28:11.475Z,7.96
2022-11-08T17:30:43.992Z,7.92
2022-11-08T17:33:12.863Z,7.57
2022-11-08T17:35:42.812Z,7.64
2022-11-08T17:38:11.082Z,7.79
2022-11-08T17:40:37.690Z,7.86
2022-11-08T17:43:04.360Z,7.88
2022-11-08T17:45:33.046Z,7.64
2022-11-08T17:48:01.915Z,7.47
2022-11-08T17:50:28.567Z,7.23
2022-11-08T17:52:55.231Z,7.32
2022-11-08T17:55:22.016Z,7.35
2022-11-08T17:57:51.147Z,7.28
2022-11-08T18:00:17.941Z,7.44
2022-11-08T18:02:45.767Z,7.20
2022-11-08T18:05:12.413Z,7.38
2022-11-08T18:07:40.037Z,7.60
2022-11-08T18:10:07.155Z,7.18
2022-11-08T18:12:33.882Z,7.24
2022-11-08T18:15:00.433Z,7.45
2022-11-08T18:17:27.361Z,7.22
2022-11-08T18:19:54.043Z,7.21
2022-11-08T18:22:20.679Z,7.17
2022-11-08T18:24:50.308Z,7.00
2022-11-08T18:27:17.029Z,6.94
2022-11-08T18:29:43.630Z,6.69
2022-11-08T18:32:10.281Z,6.82
2022-11-08T18:34:36.935Z,6.83
2022-11-08T18:37:03.580Z,6.66
2022-11-08T18:39:32.693Z,6.40
2022-11-08T18:41:59.256Z,6.41
2022-11-08T18:44:25.820Z,6.57
2022-11-08T18:46:52.392Z,6.57
2022-11-08T18:49:19.247Z,6.81
2022-11-08T18:51:52.652Z,6.64
2022-11-08T18:54:19.615Z,6.67
2022-11-08T18:56:46.179Z,6.54
2022-11-08T18:59:12.657Z,6.40
2022-11-08T19:01:41.417Z,6.46
2022-11-08T19:04:08.384Z,6.15
2022-11-08T19:06:35.233Z,6.28
2022-11-08T19:09:04.395Z,6.45
2022-11-08T19:11:30.954Z,6.35
2022-11-08T19:13:58.642Z,6.27
2022-11-08T19:16:25.720Z,6.06
2022-11-08T19:18:52.293Z,6.09
2022-11-08T19:21:24.863Z,6.09
2022-11-08T19:23:52.404Z,5.71
2022-11-08T19:26:23.577Z,5.74
2022-11-08T19:28:50.772Z,5.88
2022-11-08T19:31:19.944Z,5.70
2022-11-08T19:33:51.454Z,5.63
2022-11-08T19:36:22.904Z,5.81
2022-11-08T19:38:50.122Z,5.79
2022-11-08T19:41:23.767Z,5.63
2022-11-08T19:43:54.063Z,5.78
2022-11-08T19:46:24.463Z,5.77
2022-11-08T19:48:51.979Z,5.74
2022-11-08T19:51:23.367Z,5.62
2022-11-08T19:53:50.540Z,5.45
2022-11-08T19:56:19.370Z,5.34
2022-11-08T19:58:48.961Z,5.19
2022-11-08T20:01:24.652Z,5.39
2022-11-08T20:03:51.724Z,5.44
2022-11-08T20:06:21.658Z,5.44
2022-11-08T20:08:51.116Z,5.38
2022-11-08T20:11:23.320Z,5.14
2022-11-08T20:13:51.144Z,5.35
2022-11-08T20:16:26.758Z,5.27
2022-11-08T20:18:55.934Z,5.24
2022-11-08T20:21:24.765Z,5.25
2022-11-08T20:23:51.306Z,5.21
2022-11-08T20:26:22.704Z,5.32
2022-11-08T20:28:56.420Z,5.28
2022-11-08T20:31:24.082Z,5.21
2022-11-08T20:33:54.851Z,5.39
2022-11-08T20:36:23.817Z,5.48
2022-11-08T20:38:54.310Z,5.44
2022-11-08T20:41:20.985Z,5.54
2022-11-08T20:43:47.755Z,5.53
2022-11-08T20:46:16.726Z,5.47
2022-11-08T20:48:44.279Z,5.49
2022-11-08T20:51:16.300Z,5.62
2022-11-08T20:53:43.701Z,5.62
2022-11-08T20:56:23.907Z,5.54
2022-11-08T20:58:51.765Z,5.47
2022-11-08T21:01:21.640Z,5.50
2022-11-08T21:03:52.412Z,5.57
2022-11-08T21:06:22.182Z,5.75
2022-11-08T21:09:25.534Z,5.55
2022-11-08T21:11:35.956Z,5.50
2022-11-08T21:14:04.121Z,5.43
2022-11-08T21:16:38.146Z,5.47
2022-11-08T21:19:13.855Z,5.52
2022-11-08T21:21:40.323Z,5.56
2022-11-08T21:24:07.251Z,5.62
2022-11-08T21:26:39.002Z,5.55
2022-11-08T21:29:06.343Z,5.57
2022-11-08T21:31:33.785Z,5.48
2022-11-08T21:34:00.331Z,5.49
2022-11-08T21:36:28.988Z,5.66
2022-11-08T21:38:55.417Z,5.79
2022-11-08T21:41:21.931Z,5.80
2022-11-08T21:43:50.946Z,5.78
2022-11-08T21:46:20.717Z,5.89
2022-11-08T21:48:48.291Z,5.89
2022-11-08T21:51:16.140Z,5.86
2022-11-08T21:53:52.462Z,5.70
2022-11-08T21:56:24.008Z,5.70
2022-11-08T21:58:50.527Z,5.76
2022-11-08T22:01:29.938Z,5.64
2022-11-08T22:03:57.463Z,5.64
2022-11-08T22:06:24.111Z,5.63
2022-11-08T22:08:50.634Z,5.53
2022-11-08T22:11:19.599Z,5.62
2022-11-08T22:13:46.514Z,5.47
2022-11-08T22:16:15.241Z,5.45
2022-11-08T22:21:42.866Z,5.51
2022-11-08T22:24:14.804Z,5.55
2022-11-08T22:26:44.062Z,5.63
2022-11-08T22:29:10.725Z,5.83
2022-11-08T22:31:37.594Z,5.68
2022-11-08T22:34:04.899Z,5.61
2022-11-08T22:36:33.696Z,5.68
2022-11-08T22:39:00.192Z,5.46
2022-11-08T22:41:27.173Z,5.51
2022-11-08T22:43:53.901Z,5.47
2022-11-08T22:46:23.339Z,5.41
2022-11-08T22:48:50.137Z,5.44
2022-11-08T22:51:16.615Z,5.44
2022-11-08T22:53:43.184Z,5.12
2022-11-08T22:56:11.683Z,5.24
2022-11-08T22:58:42.211Z,5.20
2022-11-08T23:01:12.917Z,4.87
2022-11-08T23:03:42.600Z,4.85
2022-11-08T23:06:14.028Z,5.01
2022-11-08T23:08:43.365Z,5.05
2022-11-08T23:11:28.442Z,5.05
2022-11-08T23:14:13.210Z,5.03
2022-11-08T23:16:43.273Z,4.97
2022-11-08T23:19:31.391Z,4.68
2022-11-08T23:22:16.727Z,4.62
2022-11-08T23:24:43.940Z,4.53
2022-11-08T23:27:31.929Z,4.60
2022-11-08T23:30:17.115Z,4.71
2022-11-08T23:32:45.628Z,4.67
2022-11-08T23:35:12.948Z,4.64
2022-11-08T23:37:39.767Z,4.76
2022-11-08T23:40:26.813Z,4.66
2022-11-08T23:43:41.171Z,4.77
2022-11-08T23:46:10.193Z,4.74
2022-11-08T23:48:37.661Z,4.63
2022-11-08T23:51:07.513Z,4.50
2022-11-08T23:53:36.891Z,4.48
2022-11-08T23:56:06.900Z,4.52
2022-11-08T23:58:33.631Z,4.47
